Time;durP1;ratioP1;P1;durP2;ratioP2;P2;SDS_P1;SDS_P2;PMS_P1;PMS_P2;Temp;Humidity;BMP_temperature;BMP_pressure;BME280_temperature;BME280_humidity;BME280_pressure;Samples;Min_cycle;Max_cycle;Signal;HPM_P1;HPM_P2
2022/08/09 00:02:23;;;;;;;4.95;4.28;;;;;;;;;;5049712;28;20197;-66
2022/08/09 00:04:49;;;;;;;9.73;4.30;;;;;;;;;;5059420;28;20204;-66
2022/08/09 00:07:14;;;;;;;8.90;4.50;;;;;;;;;;5053014;28;20187;-66
2022/08/09 00:09:40;;;;;;;5.35;3.95;;;;;;;;;;5073864;28;20177;-66
2022/08/09 00:12:05;;;;;;;7.00;4.40;;;;;;;;;;5052337;28;20192;-66
2022/08/09 00:14:31;;;;;;;7.65;4.45;;;;;;;;;;5060589;28;20177;-66
2022/08/09 00:16:56;;;;;;;6.78;4.05;;;;;;;;;;5055232;28;20242;-66
2022/08/09 00:19:22;;;;;;;5.13;4.47;;;;;;;;;;5067734;28;20646;-66
2022/08/09 00:21:48;;;;;;;5.35;4.22;;;;;;;;;;5058553;28;20169;-66
2022/08/09 00:24:13;;;;;;;6.15;4.30;;;;;;;;;;5059465;28;20194;-66
2022/08/09 00:26:38;;;;;;;7.18;4.00;;;;;;;;;;5060287;28;20386;-66
2022/08/09 00:29:04;;;;;;;6.30;4.07;;;;;;;;;;5048613;28;20189;-66
2022/08/09 00:31:30;;;;;;;8.77;4.47;;;;;;;;;;5062689;28;20196;-66
2022/08/09 00:33:55;;;;;;;7.45;4.40;;;;;;;;;;5055020;28;20181;-66
2022/08/09 00:36:21;;;;;;;8.40;4.32;;;;;;;;;;5064208;28;20196;-66
2022/08/09 00:38:47;;;;;;;6.00;4.63;;;;;;;;;;5051977;28;20182;-67
2022/08/09 00:41:12;;;;;;;7.35;4.63;;;;;;;;;;5056836;28;20208;-66
2022/08/09 00:43:39;;;;;;;9.43;5.20;;;;;;;;;;5058081;28;20196;-66
2022/08/09 00:46:08;;;;;;;6.65;4.60;;;;;;;;;;5066520;28;20195;-67
2022/08/09 00:48:34;;;;;;;8.23;4.30;;;;;;;;;;5066880;28;20292;-66
2022/08/09 00:51:03;;;;;;;6.70;4.68;;;;;;;;;;5052079;28;20544;-66
2022/08/09 00:53:30;;;;;;;5.85;4.38;;;;;;;;;;5065334;28;20681;-66
2022/08/09 00:55:55;;;;;;;5.25;4.22;;;;;;;;;;5061092;28;20532;-66
2022/08/09 00:58:20;;;;;;;5.78;4.63;;;;;;;;;;5051358;28;20185;-66
2022/08/09 01:00:49;;;;;;;8.75;5.63;;;;;;;;;;5064884;28;20311;-66
2022/08/09 01:03:20;;;;;;;7.10;4.63;;;;;;;;;;5051713;28;20201;-66
2022/08/09 01:06:11;;;;;;;7.93;4.75;;;;;;;;;;5065591;28;20189;-66
2022/08/09 01:08:50;;;;;;;8.30;4.50;;;;;;;;;;5071322;28;20559;-66
2022/08/09 01:11:47;;;;;;;8.30;4.78;;;;;;;;;;5061240;28;20242;-66
2022/08/09 01:14:21;;;;;;;8.85;4.90;;;;;;;;;;5054276;28;20644;-66
2022/08/09 01:16:48;;;;;;;7.13;5.10;;;;;;;;;;5059474;28;20644;-66
2022/08/09 01:19:38;;;;;;;6.30;5.28;;;;;;;;;;5065523;28;20277;-66
2022/08/09 01:22:07;;;;;;;7.53;4.90;;;;;;;;;;5056935;28;20208;-66
2022/08/09 01:24:43;;;;;;;7.25;4.97;;;;;;;;;;5050776;28;20230;-66
2022/08/09 01:27:11;;;;;;;7.93;5.38;;;;;;;;;;5060730;28;20231;-66
2022/08/09 01:29:43;;;;;;;6.65;5.32;;;;;;;;;;5053108;28;20189;-66
2022/08/09 01:32:11;;;;;;;6.70;5.40;;;;;;;;;;5063897;28;20565;-66
2022/08/09 01:34:41;;;;;;;8.07;5.00;;;;;;;;;;5052632;28;20196;-66
2022/08/09 01:37:08;;;;;;;7.38;5.65;;;;;;;;;;5052122;28;20181;-66
2022/08/09 01:39:36;;;;;;;7.50;5.80;;;;;;;;;;5056590;28;20191;-66
2022/08/09 01:42:04;;;;;;;8.52;5.82;;;;;;;;;;5048534;28;20217;-66
2022/08/09 01:44:31;;;;;;;6.95;5.25;;;;;;;;;;5052066;28;20511;-66
2022/08/09 01:46:59;;;;;;;8.98;5.20;;;;;;;;;;5052563;28;20189;-66
2022/08/09 01:49:26;;;;;;;7.82;5.53;;;;;;;;;;5057589;28;20267;-66
2022/08/09 01:51:55;;;;;;;7.95;5.15;;;;;;;;;;5066318;28;20190;-67
2022/08/09 01:54:31;;;;;;;7.55;5.10;;;;;;;;;;5050691;28;20177;-67
2022/08/09 01:56:58;;;;;;;5.63;4.90;;;;;;;;;;5055942;28;20211;-66
2022/08/09 01:59:26;;;;;;;6.95;5.15;;;;;;;;;;5056803;28;20207;-67
2022/08/09 02:01:54;;;;;;;8.23;5.25;;;;;;;;;;5050653;28;20614;-67
2022/08/09 02:04:21;;;;;;;5.68;5.07;;;;;;;;;;5062610;28;20285;-67
2022/08/09 02:07:08;;;;;;;7.95;5.88;;;;;;;;;;5064820;28;20196;-67
2022/08/09 02:09:38;;;;;;;7.68;5.30;;;;;;;;;;5051134;28;20176;-67
2022/08/09 02:12:06;;;;;;;7.18;6.22;;;;;;;;;;5052542;28;20189;-66
2022/08/09 02:14:33;;;;;;;11.30;5.82;;;;;;;;;;5051605;28;20188;-66
2022/08/09 02:16:58;;;;;;;8.10;6.07;;;;;;;;;;5059002;28;20272;-67
2022/08/09 02:19:24;;;;;;;9.95;6.10;;;;;;;;;;5050590;28;20260;-67
2022/08/09 02:21:55;;;;;;;8.18;5.75;;;;;;;;;;5050759;28;20181;-67
2022/08/09 02:24:24;;;;;;;7.22;6.28;;;;;;;;;;5063299;28;20173;-67
2022/08/09 02:26:52;;;;;;;7.03;5.85;;;;;;;;;;5057855;28;20232;-66
2022/08/09 02:29:23;;;;;;;6.15;5.35;;;;;;;;;;5065072;28;20181;-66
2022/08/09 02:31:50;;;;;;;7.35;5.97;;;;;;;;;;5049786;28;20209;-66
2022/08/09 02:34:19;;;;;;;7.03;5.53;;;;;;;;;;5062775;28;20268;-66
2022/08/09 02:36:49;;;;;;;7.30;5.43;;;;;;;;;;5069304;28;20438;-66
2022/08/09 02:39:34;;;;;;;8.32;6.22;;;;;;;;;;5054173;28;20184;-67
2022/08/09 02:42:07;;;;;;;6.53;5.00;;;;;;;;;;5052908;28;20193;-66
2022/08/09 02:44:40;;;;;;;7.60;5.30;;;;;;;;;;5056595;28;20177;-66
2022/08/09 02:47:12;;;;;;;8.30;6.32;;;;;;;;;;5049579;28;20186;-66
2022/08/09 02:49:55;;;;;;;8.60;6.07;;;;;;;;;;5061408;28;20641;-66
2022/08/09 02:52:24;;;;;;;8.57;6.22;;;;;;;;;;5050626;28;20187;-66
2022/08/09 02:54:51;;;;;;;7.63;6.30;;;;;;;;;;5052467;28;20649;-66
2022/08/09 02:57:18;;;;;;;6.95;6.07;;;;;;;;;;5054067;28;20614;-66
2022/08/09 02:59:44;;;;;;;8.82;6.47;;;;;;;;;;5054004;28;20193;-66
2022/08/09 03:02:13;;;;;;;7.72;6.78;;;;;;;;;;5049275;28;20197;-66
2022/08/09 03:04:39;;;;;;;9.60;6.70;;;;;;;;;;5049427;28;20710;-66
2022/08/09 03:07:06;;;;;;;8.57;6.63;;;;;;;;;;5049098;28;20190;-66
2022/08/09 03:09:32;;;;;;;6.95;6.13;;;;;;;;;;5076208;28;20226;-66
2022/08/09 03:11:58;;;;;;;10.65;6.93;;;;;;;;;;5054000;28;20648;-66
2022/08/09 03:14:25;;;;;;;8.18;6.85;;;;;;;;;;5059501;28;20213;-66
2022/08/09 03:16:53;;;;;;;9.75;6.63;;;;;;;;;;5049385;28;20551;-66
2022/08/09 03:19:19;;;;;;;8.10;5.97;;;;;;;;;;5049650;28;20636;-66
2022/08/09 03:21:49;;;;;;;5.97;5.28;;;;;;;;;;5048475;28;20185;-66
2022/08/09 03:24:14;;;;;;;7.18;5.95;;;;;;;;;;5049733;28;20552;-66
2022/08/09 03:26:40;;;;;;;9.95;6.32;;;;;;;;;;5052093;28;20225;-66
2022/08/09 03:29:05;;;;;;;11.20;6.25;;;;;;;;;;5056975;28;20191;-66
2022/08/09 03:31:31;;;;;;;9.15;6.32;;;;;;;;;;5057748;28;20205;-66
2022/08/09 03:33:57;;;;;;;9.88;6.95;;;;;;;;;;5061701;28;20640;-66
2022/08/09 03:36:23;;;;;;;9.60;6.78;;;;;;;;;;5054750;28;20176;-66
2022/08/09 03:38:49;;;;;;;8.82;6.88;;;;;;;;;;5058772;28;20189;-66
2022/08/09 03:41:14;;;;;;;8.93;6.90;;;;;;;;;;5048825;28;20637;-66
2022/08/09 03:43:40;;;;;;;11.18;7.00;;;;;;;;;;5049639;28;20220;-66
2022/08/09 03:46:05;;;;;;;8.77;6.85;;;;;;;;;;5049306;28;20192;-66
2022/08/09 03:48:32;;;;;;;13.13;8.43;;;;;;;;;;5062063;28;20631;-66
2022/08/09 03:50:59;;;;;;;12.13;7.63;;;;;;;;;;5049197;28;20242;-66
2022/08/09 03:53:25;;;;;;;12.38;7.65;;;;;;;;;;5058979;28;20173;-67
2022/08/09 03:55:51;;;;;;;12.85;8.10;;;;;;;;;;5059002;28;20187;-67
2022/08/09 03:58:17;;;;;;;11.68;7.32;;;;;;;;;;5057529;28;20189;-67
2022/08/09 04:00:46;;;;;;;7.95;6.53;;;;;;;;;;5048520;28;20269;-66
2022/08/09 04:03:12;;;;;;;11.00;7.25;;;;;;;;;;5058255;28;20215;-66
2022/08/09 04:05:37;;;;;;;13.80;8.68;;;;;;;;;;5059293;28;20618;-66
2022/08/09 04:08:03;;;;;;;15.13;8.32;;;;;;;;;;5081024;28;20262;-66
2022/08/09 04:10:28;;;;;;;13.20;7.78;;;;;;;;;;5057738;28;20661;-66
2022/08/09 04:12:53;;;;;;;10.40;7.72;;;;;;;;;;5057458;28;20594;-66
2022/08/09 04:15:21;;;;;;;13.25;8.98;;;;;;;;;;5054105;28;20199;-66
2022/08/09 04:17:47;;;;;;;10.48;7.60;;;;;;;;;;5060144;28;20185;-66
2022/08/09 04:20:13;;;;;;;12.60;7.57;;;;;;;;;;5070161;28;20264;-66
2022/08/09 04:22:41;;;;;;;11.93;7.85;;;;;;;;;;5060182;28;20578;-66
2022/08/09 04:25:06;;;;;;;13.20;8.50;;;;;;;;;;5072287;28;20259;-66
2022/08/09 04:27:32;;;;;;;13.23;8.88;;;;;;;;;;5051799;28;20315;-66
2022/08/09 04:29:58;;;;;;;13.85;8.43;;;;;;;;;;5064654;28;20708;-66
2022/08/09 04:32:26;;;;;;;12.30;8.27;;;;;;;;;;5057769;28;20280;-66
2022/08/09 04:34:51;;;;;;;12.70;7.75;;;;;;;;;;5057436;28;20253;-66
2022/08/09 04:37:16;;;;;;;11.38;8.77;;;;;;;;;;5072375;28;20189;-66
2022/08/09 04:39:42;;;;;;;11.93;9.00;;;;;;;;;;5053673;28;20222;-66
2022/08/09 04:42:07;;;;;;;13.82;8.57;;;;;;;;;;5052163;28;20193;-66
2022/08/09 04:44:32;;;;;;;14.95;8.57;;;;;;;;;;5056118;28;20338;-66
2022/08/09 04:46:58;;;;;;;12.07;8.18;;;;;;;;;;5058956;28;20211;-66
2022/08/09 04:49:24;;;;;;;12.20;8.25;;;;;;;;;;5072137;28;20181;-66
2022/08/09 04:51:49;;;;;;;15.90;9.10;;;;;;;;;;5052003;28;20524;-66
2022/08/09 04:54:14;;;;;;;17.02;9.73;;;;;;;;;;5045778;28;20177;-66
2022/08/09 04:56:40;;;;;;;16.63;9.55;;;;;;;;;;5053345;28;20192;-66
2022/08/09 04:59:05;;;;;;;14.27;9.10;;;;;;;;;;5061477;28;20246;-66
2022/08/09 05:01:31;;;;;;;14.00;8.43;;;;;;;;;;5057182;28;20235;-66
2022/08/09 05:03:56;;;;;;;15.80;9.07;;;;;;;;;;5069439;28;20197;-66
2022/08/09 05:06:21;;;;;;;16.20;10.27;;;;;;;;;;5051829;28;20307;-66
2022/08/09 05:08:47;;;;;;;16.20;9.65;;;;;;;;;;5067767;28;20273;-66
2022/08/09 05:11:12;;;;;;;19.02;9.95;;;;;;;;;;5050912;28;20268;-66
2022/08/09 05:13:39;;;;;;;15.00;9.93;;;;;;;;;;5057963;28;20593;-67
2022/08/09 05:16:08;;;;;;;18.10;10.55;;;;;;;;;;5055314;28;20260;-67
2022/08/09 05:18:34;;;;;;;16.60;10.27;;;;;;;;;;5060653;28;20263;-67
2022/08/09 05:21:00;;;;;;;18.70;11.27;;;;;;;;;;5051962;28;20616;-67
2022/08/09 05:23:25;;;;;;;13.52;10.20;;;;;;;;;;5051138;28;20197;-67
2022/08/09 05:25:51;;;;;;;16.42;10.05;;;;;;;;;;5064174;28;20191;-67
2022/08/09 05:28:17;;;;;;;15.68;9.80;;;;;;;;;;5066361;28;20200;-67
2022/08/09 05:30:43;;;;;;;13.68;10.10;;;;;;;;;;5052485;28;20182;-66
2022/08/09 05:33:09;;;;;;;16.25;10.60;;;;;;;;;;5053299;28;20255;-67
2022/08/09 05:35:34;;;;;;;16.33;10.07;;;;;;;;;;5051330;28;20181;-67
2022/08/09 05:38:00;;;;;;;20.20;10.38;;;;;;;;;;5054438;28;20651;-67
2022/08/09 05:40:27;;;;;;;16.02;10.18;;;;;;;;;;5071240;28;20672;-68
2022/08/09 05:42:53;;;;;;;14.73;9.95;;;;;;;;;;5067429;28;20670;-68
2022/08/09 05:45:18;;;;;;;15.57;10.32;;;;;;;;;;5059320;28;20360;-67
2022/08/09 05:47:44;;;;;;;13.77;9.35;;;;;;;;;;5050562;28;20596;-66
2022/08/09 05:50:09;;;;;;;11.73;9.13;;;;;;;;;;5056115;28;20754;-67
2022/08/09 05:52:35;;;;;;;14.75;10.07;;;;;;;;;;5059653;28;20177;-67
2022/08/09 05:55:00;;;;;;;14.80;9.77;;;;;;;;;;5050370;28;20770;-67
2022/08/09 05:57:25;;;;;;;12.90;8.93;;;;;;;;;;5054518;28;20652;-67
2022/08/09 05:59:51;;;;;;;16.55;9.75;;;;;;;;;;5052001;28;20736;-67
2022/08/09 06:02:16;;;;;;;15.05;9.57;;;;;;;;;;5069885;28;20680;-67
2022/08/09 06:04:41;;;;;;;13.32;9.02;;;;;;;;;;5070842;28;20489;-67
2022/08/09 06:07:07;;;;;;;16.02;9.80;;;;;;;;;;5069553;28;20199;-67
2022/08/09 06:09:32;;;;;;;13.15;8.63;;;;;;;;;;5066929;28;20166;-67
2022/08/09 06:11:58;;;;;;;11.40;8.25;;;;;;;;;;5065478;28;20193;-67
2022/08/09 06:14:23;;;;;;;11.63;8.25;;;;;;;;;;5059620;28;20184;-67
2022/08/09 06:16:49;;;;;;;16.98;7.75;;;;;;;;;;5069193;28;20991;-67
2022/08/09 06:19:14;;;;;;;9.05;7.13;;;;;;;;;;5063186;28;20185;-67
2022/08/09 06:21:40;;;;;;;11.65;7.03;;;;;;;;;;5066184;28;20804;-69
2022/08/09 06:24:06;;;;;;;10.68;7.00;;;;;;;;;;5064310;28;20565;-67
2022/08/09 06:26:33;;;;;;;12.30;6.30;;;;;;;;;;5060345;28;20633;-68
2022/08/09 06:28:59;;;;;;;8.52;6.47;;;;;;;;;;5055078;28;20185;-67
2022/08/09 06:31:24;;;;;;;9.77;6.15;;;;;;;;;;5060609;28;20295;-67
2022/08/09 06:33:49;;;;;;;8.18;6.05;;;;;;;;;;5056185;28;20645;-67
2022/08/09 06:36:15;;;;;;;8.50;5.40;;;;;;;;;;5065771;28;20181;-67
2022/08/09 06:38:40;;;;;;;10.18;4.78;;;;;;;;;;5049901;28;20210;-67
2022/08/09 06:41:06;;;;;;;8.32;4.10;;;;;;;;;;5065086;28;20632;-67
2022/08/09 06:43:31;;;;;;;5.07;3.97;;;;;;;;;;5058204;28;20599;-68
2022/08/09 06:45:57;;;;;;;4.57;3.70;;;;;;;;;;5063493;28;20192;-67
2022/08/09 06:48:22;;;;;;;7.82;3.40;;;;;;;;;;5049479;28;20232;-70
2022/08/09 06:50:48;;;;;;;4.03;3.17;;;;;;;;;;5053209;28;20192;-68
2022/08/09 06:53:14;;;;;;;4.28;3.00;;;;;;;;;;5049173;28;20173;-66
2022/08/09 06:55:39;;;;;;;3.42;2.58;;;;;;;;;;5059734;28;20189;-67
2022/08/09 06:58:04;;;;;;;3.67;2.80;;;;;;;;;;5056885;28;20622;-67
2022/08/09 07:00:31;;;;;;;5.22;2.63;;;;;;;;;;5056799;28;20271;-67
2022/08/09 07:02:57;;;;;;;2.95;2.17;;;;;;;;;;5066228;28;20204;-67
2022/08/09 07:05:23;;;;;;;3.45;2.30;;;;;;;;;;5049536;28;20185;-67
2022/08/09 07:07:48;;;;;;;2.97;1.88;;;;;;;;;;5063649;28;20565;-67
2022/08/09 07:10:14;;;;;;;3.33;1.75;;;;;;;;;;5063296;28;20196;-67
2022/08/09 07:12:39;;;;;;;3.03;1.95;;;;;;;;;;5053368;28;20643;-67
2022/08/09 07:15:05;;;;;;;7.03;2.17;;;;;;;;;;5063095;28;20181;-66
2022/08/09 07:17:30;;;;;;;4.82;2.10;;;;;;;;;;5055802;28;20188;-67
2022/08/09 07:19:56;;;;;;;5.53;1.77;;;;;;;;;;5061102;28;20185;-68
2022/08/09 07:22:22;;;;;;;3.25;2.03;;;;;;;;;;5067887;28;20529;-67
2022/08/09 07:24:48;;;;;;;3.50;2.05;;;;;;;;;;5057347;28;20221;-67
2022/08/09 07:27:13;;;;;;;5.05;1.80;;;;;;;;;;5062445;28;20573;-67
2022/08/09 07:29:39;;;;;;;3.78;1.80;;;;;;;;;;5057166;28;20180;-67
2022/08/09 07:32:06;;;;;;;5.15;1.80;;;;;;;;;;5066074;28;20281;-67
2022/08/09 07:34:31;;;;;;;3.50;1.67;;;;;;;;;;5049495;28;20678;-67
2022/08/09 07:36:56;;;;;;;6.10;2.17;;;;;;;;;;5049413;28;20185;-67
2022/08/09 07:39:22;;;;;;;5.85;1.42;;;;;;;;;;5062199;28;20493;-67
2022/08/09 07:41:47;;;;;;;4.20;1.77;;;;;;;;;;5068127;28;20188;-69
2022/08/09 07:44:13;;;;;;;4.05;1.60;;;;;;;;;;5062468;28;20236;-67
2022/08/09 07:46:38;;;;;;;2.72;1.60;;;;;;;;;;5048936;28;20193;-68
2022/08/09 07:49:04;;;;;;;3.38;1.42;;;;;;;;;;5056069;28;20184;-69
2022/08/09 07:51:30;;;;;;;3.15;1.33;;;;;;;;;;5066002;28;20185;-68
2022/08/09 07:53:55;;;;;;;1.48;1.30;;;;;;;;;;5048920;28;20182;-67
2022/08/09 07:56:21;;;;;;;2.78;1.40;;;;;;;;;;5061910;28;20185;-67
2022/08/09 07:58:46;;;;;;;2.58;1.52;;;;;;;;;;5048785;28;20200;-68
2022/08/09 08:01:12;;;;;;;2.67;1.35;;;;;;;;;;5054481;28;20189;-68
2022/08/09 08:03:37;;;;;;;4.18;1.30;;;;;;;;;;5062793;28;20219;-75
2022/08/09 08:06:04;;;;;;;3.13;1.58;;;;;;;;;;5056584;28;20185;-70
2022/08/09 08:08:29;;;;;;;2.78;1.67;;;;;;;;;;5051418;28;20189;-68
2022/08/09 08:10:55;;;;;;;2.65;1.50;;;;;;;;;;5048735;28;20243;-66
2022/08/09 08:13:20;;;;;;;4.38;1.50;;;;;;;;;;5058406;28;20177;-67
2022/08/09 08:15:45;;;;;;;2.92;1.30;;;;;;;;;;5068842;28;20180;-67
2022/08/09 08:18:11;;;;;;;3.00;1.70;;;;;;;;;;5068071;28;20176;-71
2022/08/09 08:20:36;;;;;;;5.75;1.65;;;;;;;;;;5066723;28;20227;-68
2022/08/09 08:23:04;;;;;;;3.58;1.63;;;;;;;;;;5058677;28;20736;-68
2022/08/09 08:25:30;;;;;;;5.00;2.03;;;;;;;;;;5050703;28;20256;-67
2022/08/09 08:27:55;;;;;;;3.95;2.33;;;;;;;;;;5060920;28;20324;-67
2022/08/09 08:30:21;;;;;;;4.88;1.75;;;;;;;;;;5060029;28;20189;-67
2022/08/09 08:32:46;;;;;;;1.75;1.60;;;;;;;;;;5050724;28;20231;-68
2022/08/09 08:35:12;;;;;;;3.42;1.88;;;;;;;;;;5059413;28;20217;-67
2022/08/09 08:37:37;;;;;;;4.47;1.70;;;;;;;;;;5061185;28;20866;-67
2022/08/09 08:40:05;;;;;;;3.47;1.55;;;;;;;;;;5055319;28;20646;-67
2022/08/09 08:42:31;;;;;;;4.55;1.70;;;;;;;;;;5067618;28;20201;-68
2022/08/09 08:44:58;;;;;;;4.20;1.30;;;;;;;;;;5055418;28;20204;-67
2022/08/09 08:47:28;;;;;;;4.13;1.42;;;;;;;;;;5047734;28;20220;-67
2022/08/09 08:49:55;;;;;;;3.15;1.40;;;;;;;;;;5050032;28;20703;-68
2022/08/09 08:52:26;;;;;;;3.38;1.65;;;;;;;;;;5052502;28;20910;-66
2022/08/09 08:54:55;;;;;;;2.25;1.50;;;;;;;;;;5067350;28;20181;-66
2022/08/09 08:57:21;;;;;;;8.85;5.68;;;;;;;;;;5062597;28;20186;-67
2022/08/09 08:59:47;;;;;;;4.65;1.90;;;;;;;;;;5055014;28;20187;-67
2022/08/09 09:02:30;;;;;;;1.63;1.00;;;;;;;;;;5051325;28;20185;-67
2022/08/09 09:04:58;;;;;;;3.17;1.00;;;;;;;;;;5051843;28;20238;-69
2022/08/09 09:07:25;;;;;;;5.03;1.45;;;;;;;;;;5061264;28;20226;-73
2022/08/09 09:09:53;;;;;;;2.80;1.15;;;;;;;;;;5068253;28;20184;-69
2022/08/09 09:12:21;;;;;;;5.72;1.17;;;;;;;;;;5055105;28;20207;-68
2022/08/09 09:14:48;;;;;;;1.48;1.15;;;;;;;;;;5064365;28;20664;-70
2022/08/09 09:17:14;;;;;;;1.40;0.88;;;;;;;;;;5066188;28;20186;-72
2022/08/09 09:19:40;;;;;;;2.30;1.15;;;;;;;;;;5060027;28;20181;-70
2022/08/09 09:22:14;;;;;;;1.50;1.05;;;;;;;;;;5064673;28;20181;-69
2022/08/09 09:24:43;;;;;;;3.03;0.80;;;;;;;;;;5061549;28;20184;-69
2022/08/09 09:27:11;;;;;;;1.17;0.93;;;;;;;;;;5066151;28;20237;-69
2022/08/09 09:29:41;;;;;;;1.92;0.60;;;;;;;;;;5069924;28;20193;-69
2022/08/09 09:32:07;;;;;;;1.15;0.70;;;;;;;;;;5068840;28;20209;-70
2022/08/09 09:34:33;;;;;;;3.60;0.80;;;;;;;;;;5064716;28;20191;-67
2022/08/09 09:37:00;;;;;;;1.65;0.77;;;;;;;;;;5070808;28;20572;-67
2022/08/09 09:39:28;;;;;;;2.08;0.65;;;;;;;;;;5056033;28;20184;-67
2022/08/09 09:41:54;;;;;;;1.48;0.68;;;;;;;;;;5061868;28;20187;-67
2022/08/09 09:44:27;;;;;;;2.90;0.88;;;;;;;;;;5056321;28;20304;-67
2022/08/09 09:47:15;;;;;;;3.92;1.08;;;;;;;;;;5054495;28;20174;-65
2022/08/09 09:49:49;;;;;;;2.50;0.90;;;;;;;;;;5063766;28;20551;-68
2022/08/09 09:52:14;;;;;;;1.02;0.75;;;;;;;;;;5050971;28;20188;-65
2022/08/09 09:54:47;;;;;;;1.75;0.68;;;;;;;;;;5049111;28;20381;-68
2022/08/09 09:57:20;;;;;;;0.93;0.60;;;;;;;;;;5064396;28;20177;-68
2022/08/09 09:59:47;;;;;;;0.95;0.52;;;;;;;;;;5062852;28;20272;-68
2022/08/09 10:02:14;;;;;;;2.45;1.10;;;;;;;;;;5059480;28;20653;-65
2022/08/09 10:04:41;;;;;;;1.63;0.63;;;;;;;;;;5070246;28;20196;-66
2022/08/09 10:07:24;;;;;;;1.17;0.55;;;;;;;;;;5064053;28;20493;-66
2022/08/09 10:09:54;;;;;;;3.20;0.60;;;;;;;;;;5052208;28;20231;-66
2022/08/09 10:12:29;;;;;;;1.40;0.65;;;;;;;;;;5054455;28;20601;-68
2022/08/09 10:15:15;;;;;;;1.58;0.63;;;;;;;;;;5065000;28;20717;-67
2022/08/09 10:17:43;;;;;;;2.80;0.80;;;;;;;;;;5070193;28;20180;-66
2022/08/09 10:20:20;;;;;;;3.15;1.00;;;;;;;;;;5054550;28;20189;-66
2022/08/09 10:22:47;;;;;;;2.00;0.80;;;;;;;;;;5062293;28;20388;-66
2022/08/09 10:25:13;;;;;;;2.25;1.05;;;;;;;;;;5055214;28;20193;-67
2022/08/09 10:27:40;;;;;;;2.30;0.70;;;;;;;;;;5067348;28;20229;-68
2022/08/09 10:30:06;;;;;;;2.22;1.20;;;;;;;;;;5056561;28;20498;-67
2022/08/09 10:32:35;;;;;;;1.75;0.80;;;;;;;;;;5066300;28;20247;-66
2022/08/09 10:35:01;;;;;;;2.65;0.90;;;;;;;;;;5070026;28;20181;-67
2022/08/09 10:37:27;;;;;;;2.95;0.75;;;;;;;;;;5069734;28;20184;-67
2022/08/09 10:39:53;;;;;;;2.90;0.70;;;;;;;;;;5050204;28;20185;-67
2022/08/09 10:42:20;;;;;;;2.95;0.70;;;;;;;;;;5051723;28;20308;-68
2022/08/09 10:44:48;;;;;;;1.80;0.73;;;;;;;;;;5049025;28;20185;-68
2022/08/09 10:47:38;;;;;;;1.08;0.60;;;;;;;;;;5050248;28;20234;-68
2022/08/09 10:50:22;;;;;;;1.00;0.50;;;;;;;;;;5062092;28;20280;-67
2022/08/09 10:53:04;;;;;;;2.08;0.85;;;;;;;;;;5055610;28;20758;-68
2022/08/09 10:55:31;;;;;;;2.38;0.70;;;;;;;;;;5055476;28;20191;-66
2022/08/09 10:57:57;;;;;;;2.20;0.80;;;;;;;;;;5064930;28;20181;-68
2022/08/09 11:00:41;;;;;;;0.60;0.60;;;;;;;;;;5059675;28;20185;-68
2022/08/09 11:03:24;;;;;;;4.03;0.73;;;;;;;;;;5063292;28;20192;-68
2022/08/09 11:06:14;;;;;;;1.40;0.65;;;;;;;;;;5058767;28;20210;-67
2022/08/09 11:08:43;;;;;;;2.03;0.88;;;;;;;;;;5066828;28;20178;-69
2022/08/09 11:11:09;;;;;;;1.65;0.70;;;;;;;;;;5061047;28;20184;-67
2022/08/09 11:13:34;;;;;;;1.02;0.70;;;;;;;;;;5058145;28;20578;-67
2022/08/09 11:16:30;;;;;;;1.90;0.90;;;;;;;;;;5068947;28;20180;-68
2022/08/09 11:18:55;;;;;;;1.73;0.60;;;;;;;;;;5054821;28;20265;-68
2022/08/09 11:21:53;;;;;;;2.20;0.75;;;;;;;;;;5049825;28;20260;-67
2022/08/09 11:24:20;;;;;;;3.05;0.60;;;;;;;;;;5055874;28;20217;-68
2022/08/09 11:26:47;;;;;;;3.63;0.80;;;;;;;;;;5055725;28;20264;-68
2022/08/09 11:29:49;;;;;;;1.65;0.70;;;;;;;;;;5051851;28;20203;-72
2022/08/09 11:32:40;;;;;;;3.63;0.80;;;;;;;;;;5050770;28;20200;-69
2022/08/09 11:35:18;;;;;;;1.48;0.60;;;;;;;;;;5049264;28;20671;-69
2022/08/09 11:37:46;;;;;;;0.52;0.50;;;;;;;;;;5049923;28;20199;-69
2022/08/09 11:40:15;;;;;;;0.68;0.50;;;;;;;;;;5060424;28;20200;-70
2022/08/09 11:42:46;;;;;;;1.67;0.63;;;;;;;;;;5062115;28;20840;-69
2022/08/09 11:45:28;;;;;;;1.48;0.60;;;;;;;;;;5061075;28;20586;-66
2022/08/09 11:47:59;;;;;;;0.65;0.60;;;;;;;;;;5049293;28;20181;-68
2022/08/09 11:50:26;;;;;;;1.08;0.52;;;;;;;;;;5068907;28;20702;-67
2022/08/09 11:52:58;;;;;;;4.07;0.80;;;;;;;;;;5052581;28;20272;-69
2022/08/09 11:55:32;;;;;;;2.42;0.80;;;;;;;;;;5047924;28;20192;-68
2022/08/09 11:58:04;;;;;;;1.38;0.60;;;;;;;;;;5051400;28;20652;-68
2022/08/09 12:00:31;;;;;;;1.42;0.70;;;;;;;;;;5058786;28;20275;-69
2022/08/09 12:02:58;;;;;;;3.83;0.70;;;;;;;;;;5051961;28;20296;-68
2022/08/09 12:05:32;;;;;;;0.68;0.68;;;;;;;;;;5063054;28;20181;-69
2022/08/09 12:07:59;;;;;;;3.20;0.80;;;;;;;;;;5062233;28;20534;-67
2022/08/09 12:10:24;;;;;;;1.75;0.70;;;;;;;;;;5065516;28;20185;-67
2022/08/09 12:12:50;;;;;;;0.80;0.60;;;;;;;;;;5058892;28;20235;-67
2022/08/09 12:15:24;;;;;;;1.75;0.90;;;;;;;;;;5055976;28;20275;-67
2022/08/09 12:17:50;;;;;;;1.75;0.70;;;;;;;;;;5058744;28;20189;-68
2022/08/09 12:20:26;;;;;;;0.82;0.57;;;;;;;;;;5063271;28;20675;-69
2022/08/09 12:22:57;;;;;;;2.65;0.70;;;;;;;;;;5069321;28;20565;-68
2022/08/09 12:25:24;;;;;;;0.63;0.55;;;;;;;;;;5068410;28;20181;-70
2022/08/09 12:28:12;;;;;;;1.20;0.55;;;;;;;;;;5054153;28;20622;-70
2022/08/09 12:30:38;;;;;;;1.52;0.60;;;;;;;;;;5051127;28;20265;-70
2022/08/09 12:33:03;;;;;;;2.55;0.80;;;;;;;;;;5059158;28;20224;-70
2022/08/09 12:35:29;;;;;;;1.85;0.52;;;;;;;;;;5059938;28;20716;-71
2022/08/09 12:37:55;;;;;;;0.80;0.50;;;;;;;;;;5068445;28;20192;-71
2022/08/09 12:40:25;;;;;;;4.25;0.90;;;;;;;;;;5072565;28;20531;-72
2022/08/09 12:42:52;;;;;;;2.33;0.70;;;;;;;;;;5054937;28;20657;-70
2022/08/09 12:45:18;;;;;;;1.67;0.60;;;;;;;;;;5060084;28;20196;-69
2022/08/09 12:47:44;;;;;;;3.97;0.80;;;;;;;;;;5069758;28;20227;-69
2022/08/09 12:50:16;;;;;;;1.17;0.50;;;;;;;;;;5065047;28;20213;-67
2022/08/09 12:52:44;;;;;;;0.95;0.63;;;;;;;;;;5052374;28;20644;-70
2022/08/09 12:55:09;;;;;;;1.17;0.80;;;;;;;;;;5070500;28;20616;-68
2022/08/09 12:57:48;;;;;;;1.75;0.65;;;;;;;;;;5060484;28;20260;-70
2022/08/09 13:00:19;;;;;;;0.60;0.60;;;;;;;;;;5050810;28;20987;-68
2022/08/09 13:02:49;;;;;;;1.35;0.60;;;;;;;;;;5053089;28;20197;-68
2022/08/09 13:05:16;;;;;;;2.10;0.60;;;;;;;;;;5051341;28;20311;-69
2022/08/09 13:07:42;;;;;;;1.15;0.50;;;;;;;;;;5060572;28;20216;-69
2022/08/09 13:10:07;;;;;;;2.92;0.90;;;;;;;;;;5060707;28;20278;-70
2022/08/09 13:12:33;;;;;;;3.58;0.77;;;;;;;;;;5056216;28;20641;-69
2022/08/09 13:15:06;;;;;;;1.38;0.60;;;;;;;;;;5064682;28;20192;-69
2022/08/09 13:17:31;;;;;;;1.30;0.70;;;;;;;;;;5059244;28;20238;-69
2022/08/09 13:19:57;;;;;;;1.67;0.77;;;;;;;;;;5071391;28;20185;-68
2022/08/09 13:22:25;;;;;;;3.00;0.80;;;;;;;;;;5070562;28;20191;-68
2022/08/09 13:24:53;;;;;;;1.48;0.55;;;;;;;;;;5059580;28;20182;-68
2022/08/09 13:27:33;;;;;;;1.35;0.70;;;;;;;;;;5050363;28;20248;-70
2022/08/09 13:30:02;;;;;;;1.23;0.68;;;;;;;;;;5064348;28;20184;-70
2022/08/09 13:32:44;;;;;;;1.70;0.60;;;;;;;;;;5067583;28;20195;-69
2022/08/09 13:35:11;;;;;;;2.35;0.60;;;;;;;;;;5071391;28;20548;-69
2022/08/09 13:37:36;;;;;;;2.55;0.63;;;;;;;;;;5068328;28;20188;-71
2022/08/09 13:40:03;;;;;;;1.20;0.50;;;;;;;;;;5057013;28;20184;-70
2022/08/09 13:42:29;;;;;;;1.02;0.60;;;;;;;;;;5070086;28;20192;-69
2022/08/09 13:44:55;;;;;;;1.17;0.50;;;;;;;;;;5066219;28;20675;-68
2022/08/09 13:47:20;;;;;;;0.70;0.60;;;;;;;;;;5071289;28;20181;-69
2022/08/09 13:49:45;;;;;;;2.40;0.65;;;;;;;;;;5054175;28;20436;-70
2022/08/09 13:52:11;;;;;;;3.03;0.82;;;;;;;;;;5050596;28;20725;-70
2022/08/09 13:54:37;;;;;;;1.05;0.60;;;;;;;;;;5051495;28;20235;-70
2022/08/09 13:57:02;;;;;;;1.67;0.70;;;;;;;;;;5067254;28;20251;-71
2022/08/09 13:59:28;;;;;;;1.05;0.80;;;;;;;;;;5058948;28;20260;-70
2022/08/09 14:01:53;;;;;;;1.60;0.70;;;;;;;;;;5052923;28;20188;-70
2022/08/09 14:04:19;;;;;;;0.80;0.65;;;;;;;;;;5061185;28;20652;-71
2022/08/09 14:06:55;;;;;;;1.35;0.55;;;;;;;;;;5059655;28;20181;-72
2022/08/09 14:09:21;;;;;;;0.77;0.65;;;;;;;;;;5067942;28;20264;-70
2022/08/09 14:11:46;;;;;;;2.53;0.60;;;;;;;;;;5050409;28;20272;-70
2022/08/09 14:14:12;;;;;;;2.47;0.70;;;;;;;;;;5068889;28;20177;-72
2022/08/09 14:16:37;;;;;;;3.72;0.60;;;;;;;;;;5054996;28;20217;-69
2022/08/09 14:19:02;;;;;;;0.93;0.70;;;;;;;;;;5055825;28;20196;-68
2022/08/09 14:21:28;;;;;;;1.20;0.60;;;;;;;;;;5062229;28;20271;-71
2022/08/09 14:23:53;;;;;;;2.25;0.73;;;;;;;;;;5054028;28;20189;-70
2022/08/09 14:26:20;;;;;;;2.03;0.98;;;;;;;;;;5055316;28;20323;-69
2022/08/09 14:28:45;;;;;;;1.15;0.65;;;;;;;;;;5063990;28;20189;-70
2022/08/09 14:31:10;;;;;;;1.33;0.70;;;;;;;;;;5057234;28;20362;-71
2022/08/09 14:33:36;;;;;;;2.05;0.90;;;;;;;;;;5064718;28;20200;-70
2022/08/09 14:36:02;;;;;;;1.15;0.50;;;;;;;;;;5066312;28;20279;-69
2022/08/09 14:38:27;;;;;;;0.82;0.68;;;;;;;;;;5060109;28;20562;-69
2022/08/09 14:40:53;;;;;;;1.55;0.65;;;;;;;;;;5056414;28;20188;-70
2022/08/09 14:43:19;;;;;;;3.03;0.70;;;;;;;;;;5063961;28;20283;-70
2022/08/09 14:45:44;;;;;;;1.40;0.70;;;;;;;;;;5064676;28;20176;-76
2022/08/09 14:48:10;;;;;;;0.73;0.55;;;;;;;;;;5061283;28;20185;-74